Cape Hatteras, North Carolina
Current Conditions -  °F | °C
As of 3:51 PM on Sunday 23 Nov 2014 (Local Time) from KHSE Reporting Station
Light Rain Light Rain  
Wind Chill: 63°   Ceiling: 12000
Heat Index: 63°   Visibility: 5mi
Dew Point: 61°   Wind: 15mph
Humidity: 93%   Direction: 160°SSE
Pressure: 30.12"   Gusts: 25mph
Location:  35.23°N, 75.62°W
Report Text: KHSE 232051Z AUTO 16013G22KT 5SM -RA BR FEW035 SCT049 BKN120 17/16 A3012 RMK AO2 PK WND 16026/2001 SLP200 P0004 60008 T01720161 56019 TSNO
Loading
Personal Weather Stations






























Interactive Weather Map New forecast layout! Learn more

10-Day Weather Forecast

Advertisements
Track Severe Weather on mobile